sensor_id;sensor_type;location;lat;lon;timestamp;pressure;altitude;pressure_sealevel;temperature;humidity
62655;BME280;48717;55.556;37.816;2023-06-10T00:00:01;99828.50;;;12.71;53.74
62655;BME280;48717;55.556;37.816;2023-06-10T00:02:38;99833.75;;;12.74;53.93
62655;BME280;48717;55.556;37.816;2023-06-10T00:05:07;99846.06;;;12.75;53.63
62655;BME280;48717;55.556;37.816;2023-06-10T00:07:40;99819.78;;;12.58;54.06
62655;BME280;48717;55.556;37.816;2023-06-10T00:10:08;99824.19;;;12.58;54.60
62655;BME280;48717;55.556;37.816;2023-06-10T00:12:38;99832.13;;;12.58;55.14
62655;BME280;48717;55.556;37.816;2023-06-10T00:15:06;99834.03;;;12.43;54.88
62655;BME280;48717;55.556;37.816;2023-06-10T00:17:34;99808.66;;;12.20;55.72
62655;BME280;48717;55.556;37.816;2023-06-10T00:20:01;99843.00;;;12.25;55.78
62655;BME280;48717;55.556;37.816;2023-06-10T00:22:31;99840.44;;;12.14;56.16
62655;BME280;48717;55.556;37.816;2023-06-10T00:24:59;99839.59;;;12.06;56.99
62655;BME280;48717;55.556;37.816;2023-06-10T00:27:26;99825.59;;;11.88;57.45
62655;BME280;48717;55.556;37.816;2023-06-10T00:29:59;99837.97;;;11.83;57.73
62655;BME280;48717;55.556;37.816;2023-06-10T00:32:28;99829.25;;;11.60;59.03
62655;BME280;48717;55.556;37.816;2023-06-10T00:34:55;99821.38;;;11.51;58.81
62655;BME280;48717;55.556;37.816;2023-06-10T00:37:23;99834.59;;;11.49;58.93
62655;BME280;48717;55.556;37.816;2023-06-10T00:39:50;99848.66;;;11.55;59.62
62655;BME280;48717;55.556;37.816;2023-06-10T00:42:18;99857.47;;;11.51;59.96
62655;BME280;48717;55.556;37.816;2023-06-10T00:44:47;99852.22;;;11.46;59.65
62655;BME280;48717;55.556;37.816;2023-06-10T00:47:14;99806.56;;;11.20;59.51
62655;BME280;48717;55.556;37.816;2023-06-10T00:49:41;99854.88;;;11.44;59.49
62655;BME280;48717;55.556;37.816;2023-06-10T00:52:08;99870.66;;;11.54;59.32
62655;BME280;48717;55.556;37.816;2023-06-10T00:54:38;99820.59;;;11.29;59.79
62655;BME280;48717;55.556;37.816;2023-06-10T00:57:05;99857.50;;;11.47;59.41
62655;BME280;48717;55.556;37.816;2023-06-10T00:59:35;99857.50;;;11.46;59.39
62655;BME280;48717;55.556;37.816;2023-06-10T01:02:03;99864.53;;;11.52;59.18
62655;BME280;48717;55.556;37.816;2023-06-10T01:04:31;99864.53;;;11.48;59.23
62655;BME280;48717;55.556;37.816;2023-06-10T01:12:29;99864.53;;;11.52;59.72
62655;BME280;48717;55.556;37.816;2023-06-10T01:14:59;99878.59;;;11.51;59.12
62655;BME280;48717;55.556;37.816;2023-06-10T01:17:26;99896.19;;;11.58;59.23
62655;BME280;48717;55.556;37.816;2023-06-10T01:19:56;99905.00;;;11.57;59.45
62655;BME280;48717;55.556;37.816;2023-06-10T01:22:25;99901.50;;;11.52;59.96
62655;BME280;48717;55.556;37.816;2023-06-10T01:24:55;99912.91;;;11.54;59.52
62655;BME280;48717;55.556;37.816;2023-06-10T01:27:30;99905.00;;;11.57;59.42
62655;BME280;48717;55.556;37.816;2023-06-10T01:30:06;99908.50;;;11.62;60.01
62655;BME280;48717;55.556;37.816;2023-06-10T01:32:38;99904.09;;;11.56;59.28
62655;BME280;48717;55.556;37.816;2023-06-10T01:35:08;99922.59;;;11.58;59.09
62655;BME280;48717;55.556;37.816;2023-06-10T01:37:39;99920.84;;;11.51;59.77
62655;BME280;48717;55.556;37.816;2023-06-10T01:40:07;99899.78;;;11.38;59.54
62655;BME280;48717;55.556;37.816;2023-06-10T01:42:35;99919.97;;;11.48;60.21
62655;BME280;48717;55.556;37.816;2023-06-10T01:45:03;99905.91;;;11.42;59.61
62655;BME280;48717;55.556;37.816;2023-06-10T01:47:31;99928.75;;;11.49;59.47
62655;BME280;48717;55.556;37.816;2023-06-10T01:49:59;99915.59;;;11.44;59.50
62655;BME280;48717;55.556;37.816;2023-06-10T01:52:31;99927.03;;;11.39;59.83
62655;BME280;48717;55.556;37.816;2023-06-10T01:55:00;99910.38;;;11.24;59.90
62655;BME280;48717;55.556;37.816;2023-06-10T01:57:30;99938.50;;;11.39;59.70
62655;BME280;48717;55.556;37.816;2023-06-10T01:59:57;99914.78;;;11.20;59.96
62655;BME280;48717;55.556;37.816;2023-06-10T02:02:24;99942.03;;;11.26;60.74
62655;BME280;48717;55.556;37.816;2023-06-10T02:04:52;99938.50;;;11.27;60.81
62655;BME280;48717;55.556;37.816;2023-06-10T02:07:20;99941.16;;;11.23;60.96
62655;BME280;48717;55.556;37.816;2023-06-10T02:09:48;99921.81;;;11.09;60.98
62655;BME280;48717;55.556;37.816;2023-06-10T02:12:15;99933.28;;;11.09;61.06
62655;BME280;48717;55.556;37.816;2023-06-10T02:14:44;99957.88;;;11.19;61.50
62655;BME280;48717;55.556;37.816;2023-06-10T02:17:12;99936.78;;;11.02;62.09
62655;BME280;48717;55.556;37.816;2023-06-10T02:20:01;99959.63;;;11.23;61.54
62655;BME280;48717;55.556;37.816;2023-06-10T02:22:31;99956.09;;;11.28;60.92
62655;BME280;48717;55.556;37.816;2023-06-10T02:24:59;99962.25;;;11.38;60.68
62655;BME280;48717;55.556;37.816;2023-06-10T02:27:29;99966.63;;;11.37;61.06
62655;BME280;48717;55.556;37.816;2023-06-10T02:29:57;99969.28;;;11.37;60.81
62655;BME280;48717;55.556;37.816;2023-06-10T02:32:25;99960.47;;;11.40;59.92
62655;BME280;48717;55.556;37.816;2023-06-10T02:34:52;99964.88;;;11.36;60.20
62655;BME280;48717;55.556;37.816;2023-06-10T02:37:22;99971.94;;;11.28;60.78
62655;BME280;48717;55.556;37.816;2023-06-10T02:39:50;99968.44;;;11.22;61.12
62655;BME280;48717;55.556;37.816;2023-06-10T02:42:17;99935.91;;;11.02;60.70
62655;BME280;48717;55.556;37.816;2023-06-10T02:44:45;99971.09;;;11.16;60.64
62655;BME280;48717;55.556;37.816;2023-06-10T02:47:17;99945.59;;;11.01;61.24
62655;BME280;48717;55.556;37.816;2023-06-10T02:49:44;99952.63;;;11.04;60.66
62655;BME280;48717;55.556;37.816;2023-06-10T02:52:11;99953.50;;;11.09;60.75
62655;BME280;48717;55.556;37.816;2023-06-10T02:54:39;99962.31;;;11.09;61.28
62655;BME280;48717;55.556;37.816;2023-06-10T02:57:08;99972.84;;;11.13;60.83
62655;BME280;48717;55.556;37.816;2023-06-10T02:59:37;99961.44;;;11.03;62.08
62655;BME280;48717;55.556;37.816;2023-06-10T03:02:04;99937.66;;;10.82;61.46
62655;BME280;48717;55.556;37.816;2023-06-10T03:04:38;99962.31;;;10.97;61.59
62655;BME280;48717;55.556;37.816;2023-06-10T03:07:11;99959.66;;;10.84;62.21
62655;BME280;48717;55.556;37.816;2023-06-10T03:09:38;99962.28;;;10.66;62.40
62655;BME280;48717;55.556;37.816;2023-06-10T03:12:09;99973.72;;;10.73;63.19
62655;BME280;48717;55.556;37.816;2023-06-10T03:14:42;99980.75;;;10.70;62.78
62655;BME280;48717;55.556;37.816;2023-06-10T03:17:10;99987.81;;;10.72;62.95
62655;BME280;48717;55.556;37.816;2023-06-10T03:19:40;99986.91;;;10.74;63.17
62655;BME280;48717;55.556;37.816;2023-06-10T03:22:09;99975.47;;;10.80;62.35
62655;BME280;48717;55.556;37.816;2023-06-10T03:24:54;99977.25;;;10.72;62.08
62655;BME280;48717;55.556;37.816;2023-06-10T03:27:23;99984.25;;;10.76;63.25
62655;BME280;48717;55.556;37.816;2023-06-10T03:29:54;99987.81;;;10.79;63.08
62655;BME280;48717;55.556;37.816;2023-06-10T03:32:22;100000.97;;;10.76;62.09
62655;BME280;48717;55.556;37.816;2023-06-10T03:34:49;99968.44;;;10.66;62.01
62655;BME280;48717;55.556;37.816;2023-06-10T03:37:18;99956.13;;;10.62;62.47
62655;BME280;48717;55.556;37.816;2023-06-10T03:39:47;99998.34;;;10.84;61.82
62655;BME280;48717;55.556;37.816;2023-06-10T03:42:15;99991.31;;;10.86;61.71
62655;BME280;48717;55.556;37.816;2023-06-10T03:44:42;99983.41;;;10.77;61.73
62655;BME280;48717;55.556;37.816;2023-06-10T03:47:09;99990.44;;;10.86;61.72
62655;BME280;48717;55.556;37.816;2023-06-10T03:49:37;99999.22;;;10.91;62.29
62655;BME280;48717;55.556;37.816;2023-06-10T03:52:04;100000.13;;;10.94;62.26
62655;BME280;48717;55.556;37.816;2023-06-10T03:54:31;99999.22;;;11.05;61.33
62655;BME280;48717;55.556;37.816;2023-06-10T03:57:02;99973.72;;;10.97;61.52
62655;BME280;48717;55.556;37.816;2023-06-10T03:59:30;100003.63;;;11.20;61.65
62655;BME280;48717;55.556;37.816;2023-06-10T04:01:58;99979.00;;;11.10;60.73
62655;BME280;48717;55.556;37.816;2023-06-10T04:04:25;100006.25;;;11.29;60.52
62655;BME280;48717;55.556;37.816;2023-06-10T04:06:52;100008.03;;;11.36;60.02
62655;BME280;48717;55.556;37.816;2023-06-10T04:09:21;100015.03;;;11.42;60.28
62655;BME280;48717;55.556;37.816;2023-06-10T04:11:49;100019.44;;;11.49;59.48
62655;BME280;48717;55.556;37.816;2023-06-10T04:14:16;99993.03;;;11.42;59.87
62655;BME280;48717;55.556;37.816;2023-06-10T04:16:44;100013.25;;;11.54;58.67
62655;BME280;48717;55.556;37.816;2023-06-10T04:19:11;99997.44;;;11.44;58.94
62655;BME280;48717;55.556;37.816;2023-06-10T04:21:39;100019.41;;;11.62;57.97
62655;BME280;48717;55.556;37.816;2023-06-10T04:24:06;100006.19;;;11.67;58.25
62655;BME280;48717;55.556;37.816;2023-06-10T04:26:37;100005.31;;;11.66;58.33
62655;BME280;48717;55.556;37.816;2023-06-10T04:29:05;100008.81;;;11.74;58.35
62655;BME280;48717;55.556;37.816;2023-06-10T04:31:32;100022.88;;;11.89;57.93
62655;BME280;48717;55.556;37.816;2023-06-10T04:34:00;99999.13;;;11.83;57.12
62655;BME280;48717;55.556;37.816;2023-06-10T04:36:29;100014.91;;;12.00;57.11
62655;BME280;48717;55.556;37.816;2023-06-10T04:38:57;100019.31;;;12.06;56.62
62655;BME280;48717;55.556;37.816;2023-06-10T04:41:26;100015.75;;;12.16;56.68
62655;BME280;48717;55.556;37.816;2023-06-10T04:43:54;100024.47;;;12.31;56.53
62655;BME280;48717;55.556;37.816;2023-06-10T04:46:21;100007.75;;;12.32;55.32
62655;BME280;48717;55.556;37.816;2023-06-10T04:48:49;100024.31;;;12.62;55.02
62655;BME280;48717;55.556;37.816;2023-06-10T04:51:16;100020.69;;;12.75;54.07
62655;BME280;48717;55.556;37.816;2023-06-10T04:53:44;100026.81;;;12.87;53.22
62655;BME280;48717;55.556;37.816;2023-06-10T04:56:11;100031.88;;;13.16;52.61
62655;BME280;48717;55.556;37.816;2023-06-10T04:58:39;100019.28;;;13.48;51.53
62655;BME280;48717;55.556;37.816;2023-06-10T05:01:06;100026.75;;;13.92;50.24
62655;BME280;48717;55.556;37.816;2023-06-10T05:03:33;100025.50;;;14.22;48.61
62655;BME280;48717;55.556;37.816;2023-06-10T05:06:00;100005.13;;;14.26;47.40
62655;BME280;48717;55.556;37.816;2023-06-10T05:08:27;100036.25;;;14.79;46.05
62655;BME280;48717;55.556;37.816;2023-06-10T05:10:54;100034.78;;;15.16;45.79
62655;BME280;48717;55.556;37.816;2023-06-10T05:13:22;100037.03;;;15.43;44.77
62655;BME280;48717;55.556;37.816;2023-06-10T05:15:49;100008.44;;;15.56;44.33
62655;BME280;48717;55.556;37.816;2023-06-10T05:18:16;100026.84;;;16.12;43.76
62655;BME280;48717;55.556;37.816;2023-06-10T05:20:44;100031.66;;;16.37;42.68
62655;BME280;48717;55.556;37.816;2023-06-10T05:23:11;100027.28;;;16.36;42.05
62655;BME280;48717;55.556;37.816;2023-06-10T05:25:38;100041.78;;;16.62;42.51
62655;BME280;48717;55.556;37.816;2023-06-10T05:28:06;100017.00;;;16.96;41.23
62655;BME280;48717;55.556;37.816;2023-06-10T05:30:41;100034.09;;;17.26;40.15
62655;BME280;48717;55.556;37.816;2023-06-10T05:33:08;100039.09;;;17.40;39.71
62655;BME280;48717;55.556;37.816;2023-06-10T05:35:36;100030.31;;;17.69;39.27
62655;BME280;48717;55.556;37.816;2023-06-10T05:38:03;100054.81;;;17.84;39.02
62655;BME280;48717;55.556;37.816;2023-06-10T05:40:30;100054.19;;;18.06;38.57
62655;BME280;48717;55.556;37.816;2023-06-10T05:42:57;100032.63;;;18.15;37.92
62655;BME280;48717;55.556;37.816;2023-06-10T05:45:24;100036.34;;;18.09;37.77
62655;BME280;48717;55.556;37.816;2023-06-10T05:47:51;100045.69;;;18.24;37.06
62655;BME280;48717;55.556;37.816;2023-06-10T05:50:19;100038.03;;;18.44;36.20
62655;BME280;48717;55.556;37.816;2023-06-10T05:52:46;100044.81;;;18.54;36.26
62655;BME280;48717;55.556;37.816;2023-06-10T05:55:14;100050.47;;;19.02;36.12
62655;BME280;48717;55.556;37.816;2023-06-10T05:57:41;100044.59;;;19.46;34.92
62655;BME280;48717;55.556;37.816;2023-06-10T06:00:09;100040.00;;;19.75;33.98
62655;BME280;48717;55.556;37.816;2023-06-10T06:02:40;100037.09;;;20.08;33.54
62655;BME280;48717;55.556;37.816;2023-06-10T06:05:08;100046.81;;;20.11;33.71
62655;BME280;48717;55.556;37.816;2023-06-10T06:07:38;100044.06;;;20.13;33.14
62655;BME280;48717;55.556;37.816;2023-06-10T06:10:06;100033.72;;;20.03;33.13
62655;BME280;48717;55.556;37.816;2023-06-10T06:12:33;100050.56;;;20.05;32.86
62655;BME280;48717;55.556;37.816;2023-06-10T06:15:00;100038.19;;;20.27;32.48
62655;BME280;48717;55.556;37.816;2023-06-10T06:17:31;100039.72;;;20.56;32.02
62655;BME280;48717;55.556;37.816;2023-06-10T06:19:58;100033.81;;;20.70;31.82
62655;BME280;48717;55.556;37.816;2023-06-10T06:22:25;100034.94;;;20.42;31.45
62655;BME280;48717;55.556;37.816;2023-06-10T06:24:52;100047.16;;;20.72;31.55
62655;BME280;48717;55.556;37.816;2023-06-10T06:27:20;100051.47;;;20.76;31.38
62655;BME280;48717;55.556;37.816;2023-06-10T06:29:48;100041.56;;;20.78;31.85
62655;BME280;48717;55.556;37.816;2023-06-10T06:32:15;100052.78;;;20.66;31.48
62655;BME280;48717;55.556;37.816;2023-06-10T06:34:42;100042.19;;;20.39;31.54
62655;BME280;48717;55.556;37.816;2023-06-10T06:37:09;100049.06;;;20.22;32.05
62655;BME280;48717;55.556;37.816;2023-06-10T06:39:40;100057.44;;;20.37;31.65
62655;BME280;48717;55.556;37.816;2023-06-10T06:42:08;100058.63;;;20.53;31.31
62655;BME280;48717;55.556;37.816;2023-06-10T06:44:51;100047.69;;;21.04;30.17
62655;BME280;48717;55.556;37.816;2023-06-10T06:47:18;100061.34;;;21.63;29.37
62655;BME280;48717;55.556;37.816;2023-06-10T06:49:47;100062.72;;;21.95;29.53
62655;BME280;48717;55.556;37.816;2023-06-10T06:52:17;100062.81;;;22.32;28.55
62655;BME280;48717;55.556;37.816;2023-06-10T06:54:44;100035.66;;;22.59;28.04
62655;BME280;48717;55.556;37.816;2023-06-10T06:57:12;100055.50;;;23.30;27.23
62655;BME280;48717;55.556;37.816;2023-06-10T06:59:39;100045.47;;;23.69;26.49
62655;BME280;48717;55.556;37.816;2023-06-10T07:02:06;100024.16;;;23.82;26.50
62655;BME280;48717;55.556;37.816;2023-06-10T07:04:55;100008.47;;;23.90;25.41
62655;BME280;48717;55.556;37.816;2023-06-10T07:07:24;100049.69;;;23.57;25.77
62655;BME280;48717;55.556;37.816;2023-06-10T07:10:00;99973.25;;;22.52;26.72
62655;BME280;48717;55.556;37.816;2023-06-10T07:12:36;100063.75;;;22.71;27.11
62655;BME280;48717;55.556;37.816;2023-06-10T07:15:10;100067.81;;;22.60;27.69
62655;BME280;48717;55.556;37.816;2023-06-10T07:17:38;100016.16;;;22.73;26.99
62655;BME280;48717;55.556;37.816;2023-06-10T07:20:05;100047.72;;;23.06;26.80
62655;BME280;48717;55.556;37.816;2023-06-10T07:22:32;100045.34;;;23.17;26.97
62655;BME280;48717;55.556;37.816;2023-06-10T07:25:00;100072.34;;;22.39;27.83
62655;BME280;48717;55.556;37.816;2023-06-10T07:27:40;100065.53;;;21.05;29.73
62655;BME280;48717;55.556;37.816;2023-06-10T07:30:16;100075.16;;;20.17;30.75
62655;BME280;48717;55.556;37.816;2023-06-10T07:32:43;100075.41;;;19.83;31.41
62655;BME280;48717;55.556;37.816;2023-06-10T07:35:11;100064.59;;;20.60;30.77
62655;BME280;48717;55.556;37.816;2023-06-10T07:37:38;100052.41;;;21.63;29.12
62655;BME280;48717;55.556;37.816;2023-06-10T07:40:06;100058.50;;;21.67;28.10
62655;BME280;48717;55.556;37.816;2023-06-10T07:42:35;100070.59;;;22.19;27.44
62655;BME280;48717;55.556;37.816;2023-06-10T07:45:03;100088.66;;;22.74;27.12
62655;BME280;48717;55.556;37.816;2023-06-10T07:47:33;100062.16;;;23.40;25.81
62655;BME280;48717;55.556;37.816;2023-06-10T07:50:01;100054.28;;;23.72;25.24
62655;BME280;48717;55.556;37.816;2023-06-10T07:52:30;100082.66;;;24.14;24.77
62655;BME280;48717;55.556;37.816;2023-06-10T07:55:01;100078.91;;;24.34;24.19
62655;BME280;48717;55.556;37.816;2023-06-10T07:57:37;100080.66;;;24.67;23.91
62655;BME280;48717;55.556;37.816;2023-06-10T08:00:06;100065.28;;;24.19;23.95
62655;BME280;48717;55.556;37.816;2023-06-10T08:02:42;100074.00;;;24.07;24.21
62655;BME280;48717;55.556;37.816;2023-06-10T08:05:14;100087.69;;;23.68;24.46
62655;BME280;48717;55.556;37.816;2023-06-10T08:07:41;100090.47;;;22.74;25.23
62655;BME280;48717;55.556;37.816;2023-06-10T08:10:10;100095.00;;;21.71;26.96
62655;BME280;48717;55.556;37.816;2023-06-10T08:12:37;100104.22;;;20.74;28.25
62655;BME280;48717;55.556;37.816;2023-06-10T08:15:04;100108.09;;;19.92;29.66
62655;BME280;48717;55.556;37.816;2023-06-10T08:17:32;100109.78;;;19.15;30.77
62655;BME280;48717;55.556;37.816;2023-06-10T08:20:00;100103.72;;;18.79;30.95
62655;BME280;48717;55.556;37.816;2023-06-10T08:22:31;100120.50;;;18.53;31.38
62655;BME280;48717;55.556;37.816;2023-06-10T08:24:58;100080.84;;;18.09;32.40
62655;BME280;48717;55.556;37.816;2023-06-10T08:27:29;100069.69;;;17.93;32.94
62655;BME280;48717;55.556;37.816;2023-06-10T08:30:09;100121.53;;;18.17;32.82
62655;BME280;48717;55.556;37.816;2023-06-10T08:32:37;100123.50;;;18.10;32.84
62655;BME280;48717;55.556;37.816;2023-06-10T08:35:04;100118.75;;;17.87;33.14
62655;BME280;48717;55.556;37.816;2023-06-10T08:37:32;100075.59;;;17.36;33.79
62655;BME280;48717;55.556;37.816;2023-06-10T08:39:59;100121.53;;;18.17;33.55
62655;BME280;48717;55.556;37.816;2023-06-10T08:45:01;100120.91;;;20.09;30.48
62655;BME280;48717;55.556;37.816;2023-06-10T08:47:30;100116.03;;;20.94;28.77
62655;BME280;48717;55.556;37.816;2023-06-10T08:50:02;100119.28;;;21.02;28.15
62655;BME280;48717;55.556;37.816;2023-06-10T08:52:36;100115.91;;;21.42;27.21
62655;BME280;48717;55.556;37.816;2023-06-10T08:58:11;100111.38;;;21.64;26.20
62655;BME280;48717;55.556;37.816;2023-06-10T09:00:53;100119.78;;;21.12;26.34
62655;BME280;48717;55.556;37.816;2023-06-10T09:03:29;100120.75;;;21.09;26.54
62655;BME280;48717;55.556;37.816;2023-06-10T09:06:01;100118.00;;;21.56;25.70
62655;BME280;48717;55.556;37.816;2023-06-10T09:08:39;100100.69;;;21.20;25.81
62655;BME280;48717;55.556;37.816;2023-06-10T09:11:10;100117.09;;;21.34;25.66
62655;BME280;48717;55.556;37.816;2023-06-10T09:13:40;100111.16;;;21.48;24.88
62655;BME280;48717;55.556;37.816;2023-06-10T09:16:08;100101.34;;;21.90;24.41
62655;BME280;48717;55.556;37.816;2023-06-10T09:18:36;100128.25;;;22.71;23.81
62655;BME280;48717;55.556;37.816;2023-06-10T09:21:04;100132.13;;;23.40;22.77
62655;BME280;48717;55.556;37.816;2023-06-10T09:23:33;100103.84;;;23.68;21.84
62655;BME280;48717;55.556;37.816;2023-06-10T09:26:01;100100.72;;;23.76;21.20
62655;BME280;48717;55.556;37.816;2023-06-10T09:28:35;100114.41;;;23.89;21.49
62655;BME280;48717;55.556;37.816;2023-06-10T09:31:11;100128.78;;;23.35;20.21
62655;BME280;48717;55.556;37.816;2023-06-10T09:33:39;100118.47;;;23.26;20.12
62655;BME280;48717;55.556;37.816;2023-06-10T09:36:07;100128.47;;;23.60;20.60
62655;BME280;48717;55.556;37.816;2023-06-10T09:38:34;100118.47;;;24.16;20.46
62655;BME280;48717;55.556;37.816;2023-06-10T09:41:02;100124.75;;;24.16;19.90
62655;BME280;48717;55.556;37.816;2023-06-10T09:43:44;100112.31;;;23.60;19.34
62655;BME280;48717;55.556;37.816;2023-06-10T09:46:16;100137.94;;;23.31;20.22
62655;BME280;48717;55.556;37.816;2023-06-10T09:48:45;100135.50;;;22.68;21.14
62655;BME280;48717;55.556;37.816;2023-06-10T09:51:14;100111.03;;;22.35;21.78
62655;BME280;48717;55.556;37.816;2023-06-10T09:53:48;100085.50;;;22.45;22.76
62655;BME280;48717;55.556;37.816;2023-06-10T09:56:17;100128.47;;;23.04;22.35
62655;BME280;48717;55.556;37.816;2023-06-10T09:58:45;100146.16;;;23.28;22.14
62655;BME280;48717;55.556;37.816;2023-06-10T10:01:14;100139.09;;;23.44;22.03
62655;BME280;48717;55.556;37.816;2023-06-10T10:03:45;100141.88;;;23.24;21.81
62655;BME280;48717;55.556;37.816;2023-06-10T10:06:15;100094.88;;;23.50;21.42
62655;BME280;48717;55.556;37.816;2023-06-10T10:08:43;100129.69;;;24.42;20.62
62655;BME280;48717;55.556;37.816;2023-06-10T10:11:10;100132.03;;;24.98;19.90
62655;BME280;48717;55.556;37.816;2023-06-10T10:13:38;100124.16;;;25.41;19.08
62655;BME280;48717;55.556;37.816;2023-06-10T10:16:11;100121.28;;;25.61;18.66
62655;BME280;48717;55.556;37.816;2023-06-10T10:18:40;100106.72;;;26.09;17.94
62655;BME280;48717;55.556;37.816;2023-06-10T10:21:12;100127.63;;;26.50;18.30
62655;BME280;48717;55.556;37.816;2023-06-10T10:26:23;100141.59;;;25.36;18.81
62655;BME280;48717;55.556;37.816;2023-06-10T10:29:10;100115.06;;;24.30;19.64
62655;BME280;48717;55.556;37.816;2023-06-10T10:31:39;100135.81;;;23.75;20.29
62655;BME280;48717;55.556;37.816;2023-06-10T10:34:09;100134.69;;;24.32;19.98
62655;BME280;48717;55.556;37.816;2023-06-10T10:36:39;100129.97;;;24.87;19.63
62655;BME280;48717;55.556;37.816;2023-06-10T10:39:06;100127.09;;;25.69;19.04
62655;BME280;48717;55.556;37.816;2023-06-10T10:41:36;100111.31;;;26.37;18.89
62655;BME280;48717;55.556;37.816;2023-06-10T10:44:06;100125.09;;;26.62;18.18
62655;BME280;48717;55.556;37.816;2023-06-10T10:46:48;100123.44;;;27.03;18.12
62655;BME280;48717;55.556;37.816;2023-06-10T10:49:17;100123.91;;;26.80;18.16
62655;BME280;48717;55.556;37.816;2023-06-10T10:51:57;100111.00;;;25.51;18.69
62655;BME280;48717;55.556;37.816;2023-06-10T10:54:30;100139.31;;;24.12;19.97
62655;BME280;48717;55.556;37.816;2023-06-10T10:57:14;100143.44;;;22.91;21.34
62655;BME280;48717;55.556;37.816;2023-06-10T11:02:41;100156.94;;;21.44;22.77
62655;BME280;48717;55.556;37.816;2023-06-10T11:05:16;100148.31;;;22.01;22.21
62655;BME280;48717;55.556;37.816;2023-06-10T11:07:54;100109.78;;;23.75;20.45
62655;BME280;48717;55.556;37.816;2023-06-10T11:10:32;100131.50;;;25.23;18.54
62655;BME280;48717;55.556;37.816;2023-06-10T11:13:05;100136.06;;;25.70;18.13
62655;BME280;48717;55.556;37.816;2023-06-10T11:15:38;100137.50;;;25.75;18.16
62655;BME280;48717;55.556;37.816;2023-06-10T11:18:24;100133.91;;;26.05;17.91
62655;BME280;48717;55.556;37.816;2023-06-10T11:20:53;100137.38;;;25.62;18.73
62655;BME280;48717;55.556;37.816;2023-06-10T11:28:38;100146.25;;;23.07;20.64
62655;BME280;48717;55.556;37.816;2023-06-10T11:31:05;100129.91;;;22.33;21.44
62655;BME280;48717;55.556;37.816;2023-06-10T11:33:32;100133.81;;;21.84;22.09
62655;BME280;48717;55.556;37.816;2023-06-10T11:36:00;100157.16;;;22.65;21.27
62655;BME280;48717;55.556;37.816;2023-06-10T11:38:28;100140.09;;;23.96;20.47
62655;BME280;48717;55.556;37.816;2023-06-10T11:40:55;100145.41;;;24.16;19.33
62655;BME280;48717;55.556;37.816;2023-06-10T11:43:23;100145.63;;;24.96;18.49
62655;BME280;48717;55.556;37.816;2023-06-10T11:45:54;100143.09;;;26.03;17.49
62655;BME280;48717;55.556;37.816;2023-06-10T11:48:22;100133.78;;;26.67;16.71
62655;BME280;48717;55.556;37.816;2023-06-10T11:50:49;100123.84;;;26.38;16.72
62655;BME280;48717;55.556;37.816;2023-06-10T11:53:19;100126.81;;;25.11;17.83
62655;BME280;48717;55.556;37.816;2023-06-10T11:55:49;100150.19;;;23.56;18.88
62655;BME280;48717;55.556;37.816;2023-06-10T11:58:19;100153.97;;;22.57;19.38
62655;BME280;48717;55.556;37.816;2023-06-10T12:00:51;100158.91;;;22.66;19.91
62655;BME280;48717;55.556;37.816;2023-06-10T12:03:20;100125.53;;;23.09;19.30
62655;BME280;48717;55.556;37.816;2023-06-10T12:05:56;100125.47;;;22.91;20.01
62655;BME280;48717;55.556;37.816;2023-06-10T12:08:24;100139.28;;;23.59;19.41
62655;BME280;48717;55.556;37.816;2023-06-10T12:10:52;100114.81;;;25.00;18.07
62655;BME280;48717;55.556;37.816;2023-06-10T12:13:19;100138.97;;;26.12;17.33
62655;BME280;48717;55.556;37.816;2023-06-10T12:15:46;100150.00;;;26.67;17.15
62655;BME280;48717;55.556;37.816;2023-06-10T12:18:21;100130.22;;;25.92;17.74
62655;BME280;48717;55.556;37.816;2023-06-10T12:20:50;100141.59;;;24.87;18.58
62655;BME280;48717;55.556;37.816;2023-06-10T12:23:18;100136.25;;;23.47;19.99
62655;BME280;48717;55.556;37.816;2023-06-10T12:25:55;100159.16;;;22.60;21.31
62655;BME280;48717;55.556;37.816;2023-06-10T12:28:24;100166.31;;;21.99;22.17
62655;BME280;48717;55.556;37.816;2023-06-10T12:30:51;100163.91;;;21.48;22.86
62655;BME280;48717;55.556;37.816;2023-06-10T12:33:30;100153.66;;;20.91;23.56
62655;BME280;48717;55.556;37.816;2023-06-10T12:35:57;100166.63;;;20.28;23.70
62655;BME280;48717;55.556;37.816;2023-06-10T12:38:25;100147.91;;;20.28;23.51
62655;BME280;48717;55.556;37.816;2023-06-10T12:41:02;100157.34;;;20.86;22.78
62655;BME280;48717;55.556;37.816;2023-06-10T12:43:32;100162.06;;;22.35;21.37
62655;BME280;48717;55.556;37.816;2023-06-10T12:46:09;100140.13;;;24.48;19.20
62655;BME280;48717;55.556;37.816;2023-06-10T12:48:49;100141.44;;;26.00;18.00
62655;BME280;48717;55.556;37.816;2023-06-10T12:51:18;100132.06;;;26.66;17.03
62655;BME280;48717;55.556;37.816;2023-06-10T12:53:46;100130.72;;;25.84;18.30
62655;BME280;48717;55.556;37.816;2023-06-10T12:56:13;100139.97;;;24.67;19.10
62655;BME280;48717;55.556;37.816;2023-06-10T12:58:40;100114.00;;;23.07;20.52
62655;BME280;48717;55.556;37.816;2023-06-10T13:01:08;100151.13;;;21.98;21.79
62655;BME280;48717;55.556;37.816;2023-06-10T13:03:35;100153.19;;;21.03;23.16
62655;BME280;48717;55.556;37.816;2023-06-10T13:06:05;100159.53;;;20.27;23.85
62655;BME280;48717;55.556;37.816;2023-06-10T13:08:33;100145.69;;;19.62;24.32
62655;BME280;48717;55.556;37.816;2023-06-10T13:11:00;100160.50;;;19.16;24.92
62655;BME280;48717;55.556;37.816;2023-06-10T13:13:27;100163.28;;;18.82;25.18
62655;BME280;48717;55.556;37.816;2023-06-10T13:15:55;100169.38;;;18.87;24.85